createdAt,value
2023-05-22T00:03:04.948Z,8.95
2023-05-22T00:08:11.898Z,8.55
2023-05-22T00:13:13.783Z,8.88
2023-05-22T00:18:15.680Z,8.88
2023-05-22T00:23:18.340Z,7.88
2023-05-22T00:28:20.397Z,7.68
2023-05-22T00:33:22.444Z,7.50
2023-05-22T00:38:32.911Z,8.80
2023-05-22T00:43:34.887Z,9.07
2023-05-22T00:48:36.765Z,7.50
2023-05-22T00:53:38.784Z,8.25
2023-05-22T00:58:41.427Z,7.00
2023-05-22T01:03:47.212Z,9.77
2023-05-22T01:08:49.295Z,11.52
2023-05-22T01:14:01.132Z,9.15
2023-05-22T01:19:21.295Z,11.57
2023-05-22T01:24:52.278Z,10.50
2023-05-22T01:35:02.367Z,8.45
2023-05-22T01:40:07.795Z,6.65
2023-05-22T01:45:11.681Z,8.63
2023-05-22T01:50:14.627Z,9.32
2023-05-22T01:55:22.876Z,8.98
2023-05-22T02:00:27.819Z,10.25
2023-05-22T02:05:32.729Z,12.60
2023-05-22T02:10:36.670Z,10.35
2023-05-22T02:15:38.979Z,8.05
2023-05-22T02:20:41.970Z,8.88
2023-05-22T02:25:43.849Z,7.60
2023-05-22T02:30:45.720Z,10.07
2023-05-22T02:35:48.130Z,8.25
2023-05-22T02:40:50.050Z,9.32
2023-05-22T02:45:51.919Z,9.05
2023-05-22T02:50:53.870Z,11.32
2023-05-22T02:55:59.035Z,8.10
2023-05-22T03:01:01.102Z,9.40
2023-05-22T03:06:04.398Z,8.32
2023-05-22T03:11:08.107Z,8.88
2023-05-22T03:16:10.026Z,10.30
2023-05-22T03:21:16.881Z,8.30
2023-05-22T03:26:18.743Z,7.40
2023-05-22T03:31:29.294Z,11.70
2023-05-22T03:36:38.579Z,9.38
2023-05-22T03:41:41.071Z,7.75
2023-05-22T03:46:43.278Z,10.35
2023-05-22T03:51:45.349Z,8.10
2023-05-22T03:56:47.320Z,8.00
2023-05-22T04:01:49.211Z,9.70
2023-05-22T04:06:53.576Z,8.35
2023-05-22T04:11:58.931Z,8.60
2023-05-22T04:17:00.789Z,9.35
2023-05-22T04:22:03.639Z,8.27
2023-05-22T04:27:08.740Z,8.90
2023-05-22T04:32:10.803Z,9.70
2023-05-22T04:37:15.234Z,8.43
2023-05-22T04:42:17.553Z,8.65
2023-05-22T04:47:19.753Z,6.63
2023-05-22T04:52:21.963Z,7.80
2023-05-22T04:57:27.886Z,7.93
2023-05-22T05:02:31.902Z,8.85
2023-05-22T05:07:37.691Z,11.57
2023-05-22T05:12:39.892Z,8.25
2023-05-22T05:17:42.931Z,7.82
2023-05-22T05:22:46.245Z,10.60
2023-05-22T05:27:50.603Z,6.63
2023-05-22T05:32:57.457Z,6.93
2023-05-22T05:38:08.098Z,8.68
2023-05-22T05:43:16.156Z,8.52
2023-05-22T05:48:20.001Z,7.70
2023-05-22T05:53:23.688Z,8.38
2023-05-22T05:58:32.245Z,8.80
2023-05-22T06:03:56.035Z,7.75
2023-05-22T06:09:07.461Z,8.15
2023-05-22T06:14:23.734Z,9.90
2023-05-22T06:19:30.777Z,8.98
2023-05-22T06:24:33.934Z,8.65
2023-05-22T06:29:41.559Z,8.98
2023-05-22T06:34:47.592Z,9.38
2023-05-22T06:39:55.589Z,8.57
2023-05-22T06:45:07.330Z,7.93
2023-05-22T06:50:21.559Z,8.48
2023-05-22T06:55:23.772Z,8.88
2023-05-22T07:00:36.366Z,8.57
2023-05-22T07:05:51.683Z,9.10
2023-05-22T07:10:53.884Z,7.82
2023-05-22T07:15:57.097Z,7.25
2023-05-22T07:21:04.889Z,9.88
2023-05-22T07:26:08.329Z,8.20
2023-05-22T07:31:15.144Z,6.78
2023-05-22T07:36:19.079Z,8.02
2023-05-22T07:41:22.842Z,7.35
2023-05-22T07:46:29.325Z,8.38
2023-05-22T07:51:41.265Z,7.32
2023-05-22T07:56:46.597Z,7.47
2023-05-22T08:01:51.891Z,7.47
2023-05-22T08:06:53.829Z,8.02
2023-05-22T08:11:56.770Z,7.78
2023-05-22T08:17:00.461Z,8.25
2023-05-22T08:22:03.425Z,7.88
2023-05-22T08:27:05.532Z,6.95
2023-05-22T08:32:08.819Z,7.13
2023-05-22T08:37:16.628Z,6.93
2023-05-22T08:42:19.531Z,6.85
2023-05-22T08:47:26.169Z,8.30
2023-05-22T08:52:37.510Z,7.80
2023-05-22T08:57:41.076Z,6.93
2023-05-22T09:02:43.079Z,6.80
2023-05-22T09:07:45.873Z,6.80
2023-05-22T09:13:01.202Z,9.02
2023-05-22T09:18:06.727Z,7.60
2023-05-22T09:23:17.968Z,7.63
2023-05-22T09:28:20.643Z,6.70
2023-05-22T09:33:23.665Z,6.68
2023-05-22T09:38:29.254Z,6.65
2023-05-22T09:43:33.530Z,6.80
2023-05-22T09:48:38.965Z,7.80
2023-05-22T09:53:43.447Z,6.35
2023-05-22T09:58:47.840Z,8.48
2023-05-22T10:03:53.015Z,8.45
2023-05-22T10:09:01.024Z,7.45
2023-05-22T10:14:05.174Z,9.13
2023-05-22T10:19:08.486Z,8.07
2023-05-22T10:24:10.410Z,6.78
2023-05-22T10:29:17.320Z,7.15
2023-05-22T10:34:44.743Z,7.38
2023-05-22T10:40:07.526Z,10.30
2023-05-22T10:45:12.350Z,10.80
2023-05-22T10:50:15.044Z,9.50
2023-05-22T10:55:23.707Z,9.13
2023-05-22T11:00:25.889Z,10.07
2023-05-22T11:05:34.520Z,8.75
2023-05-22T11:10:56.202Z,9.63
2023-05-22T11:15:58.479Z,8.77
2023-05-22T11:21:01.048Z,9.20
2023-05-22T11:26:26.434Z,7.95
2023-05-22T11:31:30.253Z,8.05
2023-05-22T11:36:32.695Z,8.13
2023-05-22T11:41:34.605Z,8.77
2023-05-22T11:46:36.508Z,8.10
2023-05-22T11:51:39.538Z,8.27
2023-05-22T11:56:41.822Z,8.95
2023-05-22T12:01:43.796Z,8.57
2023-05-22T12:06:46.246Z,7.65
2023-05-22T12:11:48.783Z,7.15
2023-05-22T12:16:52.815Z,7.18
2023-05-22T12:21:55.174Z,7.35
2023-05-22T12:26:57.060Z,8.48
2023-05-22T12:32:04.050Z,8.00
2023-05-22T12:37:21.297Z,8.32
2023-05-22T12:42:23.740Z,8.23
2023-05-22T12:47:25.974Z,9.13
2023-05-22T12:52:28.052Z,9.30
2023-05-22T12:57:30.005Z,8.05
2023-05-22T13:02:32.091Z,7.93
2023-05-22T13:07:37.069Z,7.97
2023-05-22T13:12:39.098Z,8.80
2023-05-22T13:17:41.395Z,9.45
2023-05-22T13:22:43.364Z,7.13
2023-05-22T13:27:46.052Z,7.95
2023-05-22T13:32:48.207Z,8.30
2023-05-22T13:37:50.569Z,7.63
2023-05-22T13:42:52.909Z,6.57
2023-05-22T13:47:54.836Z,8.43
2023-05-22T13:52:56.720Z,10.68
2023-05-22T13:57:58.947Z,9.52
2023-05-22T14:03:01.056Z,9.68
2023-05-22T14:08:03.061Z,9.90
2023-05-22T14:13:04.947Z,10.65
2023-05-22T14:18:06.830Z,11.80
2023-05-22T14:23:09.056Z,9.25
2023-05-22T14:28:11.905Z,10.90
2023-05-22T14:33:13.866Z,11.43
2023-05-22T14:38:16.265Z,11.45
2023-05-22T14:43:18.203Z,10.07
2023-05-22T14:48:20.710Z,10.52
2023-05-22T14:53:23.399Z,10.52
2023-05-22T14:58:25.389Z,10.50
2023-05-22T15:03:27.439Z,11.57
2023-05-22T15:08:29.270Z,12.02
2023-05-22T15:13:31.135Z,10.25
2023-05-22T15:18:32.999Z,10.68
2023-05-22T15:23:35.811Z,12.35
2023-05-22T15:28:37.654Z,9.25
2023-05-22T15:33:39.859Z,12.60
2023-05-22T15:38:42.724Z,12.55
2023-05-22T15:43:44.683Z,12.20
2023-05-22T15:48:46.927Z,13.73
2023-05-22T15:53:50.953Z,11.73
2023-05-22T15:58:52.816Z,11.20
2023-05-22T16:03:54.739Z,10.95
2023-05-22T16:08:56.612Z,12.70
2023-05-22T16:13:58.513Z,11.45
2023-05-22T16:19:00.515Z,11.80
2023-05-22T16:24:03.688Z,10.13
2023-05-22T16:29:09.121Z,10.82
2023-05-22T16:34:11.028Z,11.23
2023-05-22T16:39:12.906Z,12.30
2023-05-22T16:44:14.774Z,11.27
2023-05-22T16:49:16.646Z,10.18
2023-05-22T16:54:18.580Z,10.25
2023-05-22T16:59:20.464Z,10.00
2023-05-22T17:04:22.363Z,10.25
2023-05-22T17:09:24.291Z,10.40
2023-05-22T17:14:26.531Z,11.55
2023-05-22T17:19:28.452Z,9.82
2023-05-22T17:24:30.395Z,11.52
2023-05-22T17:29:32.314Z,12.15
2023-05-22T17:34:34.394Z,12.27
2023-05-22T17:39:36.327Z,11.18
2023-05-22T17:44:38.211Z,10.18
2023-05-22T17:49:40.158Z,13.05
2023-05-22T17:54:42.089Z,10.55
2023-05-22T17:59:44.336Z,12.73
2023-05-22T18:04:46.249Z,12.32
2023-05-22T18:09:48.704Z,11.85
2023-05-22T18:14:50.646Z,13.20
2023-05-22T18:19:52.514Z,20.25
2023-05-22T18:24:54.374Z,16.75
2023-05-22T18:29:56.464Z,19.98
2023-05-22T18:34:58.772Z,18.13
2023-05-22T18:40:00.776Z,17.55
2023-05-22T18:45:02.838Z,22.08
2023-05-22T18:50:05.407Z,19.67
2023-05-22T18:55:07.964Z,21.38
2023-05-22T19:00:10.649Z,19.55
2023-05-22T19:05:12.730Z,23.10
2023-05-22T19:10:14.624Z,24.10
2023-05-22T19:15:16.519Z,26.95
2023-05-22T19:20:18.410Z,23.02
2023-05-22T19:25:21.142Z,26.17
2023-05-22T19:30:23.125Z,23.17
2023-05-22T19:35:24.988Z,24.60
2023-05-22T19:40:26.883Z,26.13
2023-05-22T19:45:29.095Z,23.13
2023-05-22T19:50:30.974Z,28.63
2023-05-22T19:55:34.529Z,25.88
2023-05-22T20:00:38.291Z,26.50
2023-05-22T20:05:40.519Z,24.70
2023-05-22T20:10:42.671Z,25.45
2023-05-22T20:15:47.638Z,24.92
2023-05-22T20:20:49.791Z,28.08
2023-05-22T20:25:51.658Z,27.60
2023-05-22T20:30:53.595Z,24.58
2023-05-22T20:35:55.555Z,24.95
2023-05-22T20:40:59.776Z,22.95
2023-05-22T20:46:02.616Z,25.60
2023-05-22T20:51:05.243Z,25.08
2023-05-22T20:56:08.602Z,22.65
2023-05-22T21:01:10.821Z,23.63
2023-05-22T21:06:12.682Z,21.60
2023-05-22T21:11:14.548Z,21.02
2023-05-22T21:16:16.522Z,19.30
2023-05-22T21:21:20.523Z,20.70
2023-05-22T21:26:23.145Z,16.95
2023-05-22T21:31:25.233Z,20.25
2023-05-22T21:36:27.084Z,15.55
2023-05-22T21:41:28.976Z,18.25
2023-05-22T21:46:31.565Z,15.38
2023-05-22T21:51:33.604Z,16.02
2023-05-22T21:56:35.658Z,14.45
2023-05-22T22:01:37.646Z,12.77
2023-05-22T22:06:39.563Z,14.50
2023-05-22T22:11:41.467Z,13.45
2023-05-22T22:16:45.510Z,11.35
2023-05-22T22:21:47.442Z,12.82
2023-05-22T22:26:49.427Z,14.20
2023-05-22T22:31:51.466Z,11.13
2023-05-22T22:36:53.999Z,11.13
2023-05-22T22:41:55.853Z,8.52
2023-05-22T22:46:57.849Z,10.48
2023-05-22T22:51:59.793Z,9.32
2023-05-22T22:57:01.626Z,10.90
2023-05-22T23:02:03.492Z,11.27
2023-05-22T23:07:05.616Z,9.60
2023-05-22T23:12:08.495Z,8.43
2023-05-22T23:17:10.592Z,10.27
2023-05-22T23:22:12.628Z,10.32
2023-05-22T23:27:14.950Z,9.57
2023-05-22T23:32:16.811Z,11.23
2023-05-22T23:37:18.678Z,10.60
2023-05-22T23:42:20.542Z,12.88
2023-05-22T23:47:22.589Z,14.18
2023-05-22T23:52:24.486Z,11.60
2023-05-22T23:57:26.447Z,13.50
